Overseas Luzon — V7NE5 — position and weather

sailwx.info

Track history (hours):
 
Tides and Currents Weather Stations Pressure Air Temp Water Temp Dewpoint Dewpoint Depression Visibility Wind Speed Wind Dir Waves Ship Positions

Overseas Luzon

Last reported at 2018-Feb-11 08:05 UTC. Time now 2018-Feb-25 08:21 UTC.
Position N 32°01' W 120°46'.
Warning: this ship's position is 14 days out of date.

Length 228 m; draft 8.4 m.

Type: Tanker. MMSI: 538002946.

Date/timePositionNaut miles runAvg speedWind from/ knotsBaromVisibWave heightAir tempDewpointWater temp
2018-Feb-11 08:05N 32°01' W 120°46'7014.2
2018-Feb-11 03:10N 33°07' W 121°11'715.2
2018-Feb-11 02:44N 33°14' W 121°13'315.1
2018-Feb-11 02:30N 33°17' W 121°14'815.0
2018-Feb-11 01:58N 33°25' W 121°18'714.9
2018-Feb-11 01:31N 33°31' W 121°20'814.9
2018-Feb-11 01:00N 33°38' W 121°23'715.1
2018-Feb-11 00:30N 33°46' W 121°25'814.9
2018-Feb-11 00:00N 33°53' W 121°28'715.1
2018-Feb-10 23:30N 33°60' W 121°31'815.3
2018-Feb-10 23:00N 34°07' W 121°34'815.3
2018-Feb-10 22:30N 34°14' W 121°37'815.4
2018-Feb-10 22:00N 34°22' W 121°39'815.4
2018-Feb-10 21:31N 34°29' W 121°42'815.2
2018-Feb-10 21:00N 34°36' W 121°45'715.1
2018-Feb-10 20:30N 34°43' W 121°48'815.2
2018-Feb-10 20:00N 34°51' W 121°51'915.1
2018-Feb-10 19:24N 34°59' W 121°55'1015.2
2018-Feb-10 18:43N 35°09' W 122°00'315.3
2018-Feb-10 18:30N 35°12' W 122°02'815.2
2018-Feb-10 18:00N 35°19' W 122°05'815.2
2018-Feb-10 17:27N 35°27' W 122°09'715.2
2018-Feb-10 17:00N 35°33' W 122°12'815.2
2018-Feb-10 16:30N 35°40' W 122°15'815.3
2018-Feb-10 16:00N 35°47' W 122°18'815.6
2018-Feb-10 15:30N 35°55' W 122°22'815.4
2018-Feb-10 15:00N 36°02' W 122°25'2915.3
2018-Feb-10 13:05N 36°29' W 122°38'215.4
2018-Feb-10 12:56N 36°31' W 122°40'615.3
2018-Feb-10 12:30N 36°37' W 122°42'715.0
2018-Feb-10 12:00N 36°45' W 122°44'815.2
2018-Feb-10 11:30N 36°52' W 122°44'915.1
2018-Feb-10 10:55N 37°01' W 122°44'614.9
2018-Feb-10 10:30N 37°07' W 122°44'815.0
2018-Feb-10 10:00N 37°15' W 122°44'815.4
2018-Feb-10 09:30N 37°23' W 122°44'815.8
2018-Feb-10 09:00N 37°31' W 122°44'815.6
2018-Feb-10 08:30N 37°38' W 122°44'714.1
2018-Feb-10 08:00N 37°45' W 122°40'612.5
2018-Feb-10 07:30N 37°48' W 122°33'714.1
2018-Feb-10 07:00N 37°49' W 122°24'510.5
2018-Feb-10 06:30N 37°45' W 122°20'0 0.2
2018-Feb-10 06:00N 37°45' W 122°20'0 0.2
2018-Feb-10 05:30N 37°45' W 122°20'0 0.1
2018-Feb-10 05:00N 37°45' W 122°20'0 0.2
2018-Feb-10 04:30N 37°45' W 122°20'0 0.0
2018-Feb-10 04:00N 37°45' W 122°20'0 0.1
2018-Feb-10 03:31N 37°45' W 122°20'1 1.2
2018-Feb-10 03:00N 37°45' W 122°21'4 7.8
2018-Feb-10 02:30N 37°48' W 122°23'713.2
2018-Feb-10 02:01N 37°54' W 122°27'612.8
2018-Feb-10 01:30N 38°01' W 122°24'714.2
2018-Feb-10 01:01N 38°04' W 122°16'713.1
2018-Feb-10 00:29N 38°02' W 122°08'0 0.2
2018-Feb-09 22:05N 38°02' W 122°07'18 0.5
2018-Feb-08 11:00N 37°51' W 122°24'20 8.1
2018-Feb-08 08:30N 37°40' W 122°46'27810.0
2018-Feb-07 04:44N 33°17' W 124°36'12712.2
2018-Feb-06 18:20N 31°26' W 123°23'  
Track history (hours):
 
Tides and Currents Weather Stations Pressure Air Temp Water Temp Dewpoint Dewpoint Depression Visibility Wind Speed Wind Dir Waves Ship Positions

Overseas Luzon

Last reported at 2018-Feb-11 08:05 UTC. Time now 2018-Feb-25 08:21 UTC.
Position N 32°01' W 120°46'.
Warning: this ship's position is 14 days out of date.

Length 228 m; draft 8.4 m.

Type: Tanker. MMSI: 538002946.

Date/timePositionNaut miles runAvg speedWind from/ knotsBaromVisibWave heightAir tempDewpointWater temp
2018-Feb-11 08:05N 32°01' W 120°46'7014.2
2018-Feb-11 03:10N 33°07' W 121°11'715.2
2018-Feb-11 02:44N 33°14' W 121°13'315.1
2018-Feb-11 02:30N 33°17' W 121°14'815.0
2018-Feb-11 01:58N 33°25' W 121°18'714.9
2018-Feb-11 01:31N 33°31' W 121°20'814.9
2018-Feb-11 01:00N 33°38' W 121°23'715.1
2018-Feb-11 00:30N 33°46' W 121°25'814.9
2018-Feb-11 00:00N 33°53' W 121°28'715.1
2018-Feb-10 23:30N 33°60' W 121°31'815.3
2018-Feb-10 23:00N 34°07' W 121°34'815.3
2018-Feb-10 22:30N 34°14' W 121°37'815.4
2018-Feb-10 22:00N 34°22' W 121°39'815.4
2018-Feb-10 21:31N 34°29' W 121°42'815.2
2018-Feb-10 21:00N 34°36' W 121°45'715.1
2018-Feb-10 20:30N 34°43' W 121°48'815.2
2018-Feb-10 20:00N 34°51' W 121°51'915.1
2018-Feb-10 19:24N 34°59' W 121°55'1015.2
2018-Feb-10 18:43N 35°09' W 122°00'315.3
2018-Feb-10 18:30N 35°12' W 122°02'815.2
2018-Feb-10 18:00N 35°19' W 122°05'815.2
2018-Feb-10 17:27N 35°27' W 122°09'715.2
2018-Feb-10 17:00N 35°33' W 122°12'815.2
2018-Feb-10 16:30N 35°40' W 122°15'815.3
2018-Feb-10 16:00N 35°47' W 122°18'815.6
2018-Feb-10 15:30N 35°55' W 122°22'815.4
2018-Feb-10 15:00N 36°02' W 122°25'2915.3
2018-Feb-10 13:05N 36°29' W 122°38'215.4
2018-Feb-10 12:56N 36°31' W 122°40'615.3
2018-Feb-10 12:30N 36°37' W 122°42'715.0
2018-Feb-10 12:00N 36°45' W 122°44'815.2
2018-Feb-10 11:30N 36°52' W 122°44'915.1
2018-Feb-10 10:55N 37°01' W 122°44'614.9
2018-Feb-10 10:30N 37°07' W 122°44'815.0
2018-Feb-10 10:00N 37°15' W 122°44'815.4
2018-Feb-10 09:30N 37°23' W 122°44'815.8
2018-Feb-10 09:00N 37°31' W 122°44'815.6
2018-Feb-10 08:30N 37°38' W 122°44'714.1
2018-Feb-10 08:00N 37°45' W 122°40'612.5
2018-Feb-10 07:30N 37°48' W 122°33'714.1
2018-Feb-10 07:00N 37°49' W 122°24'510.5
2018-Feb-10 06:30N 37°45' W 122°20'0 0.2
2018-Feb-10 06:00N 37°45' W 122°20'0 0.2
2018-Feb-10 05:30N 37°45' W 122°20'0 0.1
2018-Feb-10 05:00N 37°45' W 122°20'0 0.2
2018-Feb-10 04:30N 37°45' W 122°20'0 0.0
2018-Feb-10 04:00N 37°45' W 122°20'0 0.1
2018-Feb-10 03:31N 37°45' W 122°20'1 1.2
2018-Feb-10 03:00N 37°45' W 122°21'4 7.8
2018-Feb-10 02:30N 37°48' W 122°23'713.2
2018-Feb-10 02:01N 37°54' W 122°27'612.8
2018-Feb-10 01:30N 38°01' W 122°24'714.2
2018-Feb-10 01:01N 38°04' W 122°16'713.1
2018-Feb-10 00:29N 38°02' W 122°08'0 0.2
2018-Feb-09 22:05N 38°02' W 122°07'18 0.5
2018-Feb-08 11:00N 37°51' W 122°24'20 8.1
2018-Feb-08 08:30N 37°40' W 122°46'27810.0
2018-Feb-07 04:44N 33°17' W 124°36'12712.2
2018-Feb-06 18:20N 31°26' W 123°23'  

Dump ship's entire track history